sensor_id;sensor_type;location;lat;lon;timestamp;pressure;altitude;pressure_sealevel;temperature;humidity
10462;BME280;5278;42.656;23.374;2023-03-26T00:00:24;94125.75;;;18.88;49.64
10462;BME280;5278;42.656;23.374;2023-03-26T00:02:51;94126.81;;;18.87;49.48
10462;BME280;5278;42.656;23.374;2023-03-26T00:05:18;94131.75;;;18.84;50.17
10462;BME280;5278;42.656;23.374;2023-03-26T00:07:46;94096.81;;;18.88;50.38
10462;BME280;5278;42.656;23.374;2023-03-26T00:10:13;94126.25;;;18.85;49.52
10462;BME280;5278;42.656;23.374;2023-03-26T00:12:40;94133.50;;;18.78;47.43
10462;BME280;5278;42.656;23.374;2023-03-26T00:15:08;94136.06;;;17.82;49.18
10462;BME280;5278;42.656;23.374;2023-03-26T00:17:36;94129.13;;;16.76;52.60
10462;BME280;5278;42.656;23.374;2023-03-26T00:20:04;94131.38;;;15.94;55.86
10462;BME280;5278;42.656;23.374;2023-03-26T00:22:32;94130.97;;;15.36;58.44
10462;BME280;5278;42.656;23.374;2023-03-26T00:24:59;94123.09;;;14.93;59.66
10462;BME280;5278;42.656;23.374;2023-03-26T00:27:26;94124.81;;;14.75;60.66
10462;BME280;5278;42.656;23.374;2023-03-26T00:29:53;94125.00;;;14.48;62.15
10462;BME280;5278;42.656;23.374;2023-03-26T00:32:21;94124.31;;;14.21;63.45
10462;BME280;5278;42.656;23.374;2023-03-26T00:34:54;94114.59;;;13.97;65.03
10462;BME280;5278;42.656;23.374;2023-03-26T00:37:21;94112.47;;;13.74;66.29
10462;BME280;5278;42.656;23.374;2023-03-26T00:39:51;94110.13;;;13.60;67.12
10462;BME280;5278;42.656;23.374;2023-03-26T00:42:18;94119.00;;;13.39;68.32
10462;BME280;5278;42.656;23.374;2023-03-26T00:44:45;94102.16;;;13.22;69.05
10462;BME280;5278;42.656;23.374;2023-03-26T00:47:15;94111.22;;;13.13;69.53
10462;BME280;5278;42.656;23.374;2023-03-26T00:49:42;94104.38;;;12.99;70.24
10462;BME280;5278;42.656;23.374;2023-03-26T00:52:12;94112.78;;;12.87;70.54
10462;BME280;5278;42.656;23.374;2023-03-26T00:54:43;94108.59;;;12.80;70.91
10462;BME280;5278;42.656;23.374;2023-03-26T00:57:10;94114.59;;;12.74;71.02
10462;BME280;5278;42.656;23.374;2023-03-26T00:59:38;94114.78;;;12.66;71.26
10462;BME280;5278;42.656;23.374;2023-03-26T01:02:07;94113.38;;;12.43;72.11
10462;BME280;5278;42.656;23.374;2023-03-26T01:04:38;94114.53;;;12.28;72.20
10462;BME280;5278;42.656;23.374;2023-03-26T01:07:09;94108.91;;;12.18;72.58
10462;BME280;5278;42.656;23.374;2023-03-26T01:09:41;94112.50;;;12.10;72.80
10462;BME280;5278;42.656;23.374;2023-03-26T01:12:13;94120.53;;;12.15;72.65
10462;BME280;5278;42.656;23.374;2023-03-26T01:14:42;94114.72;;;12.20;71.70
10462;BME280;5278;42.656;23.374;2023-03-26T01:17:10;94129.38;;;12.27;71.34
10462;BME280;5278;42.656;23.374;2023-03-26T01:19:44;94124.56;;;12.24;71.03
10462;BME280;5278;42.656;23.374;2023-03-26T01:22:17;94115.94;;;12.24;71.30
10462;BME280;5278;42.656;23.374;2023-03-26T01:24:46;94119.13;;;12.26;71.52
10462;BME280;5278;42.656;23.374;2023-03-26T01:27:27;94121.75;;;12.19;71.69
10462;BME280;5278;42.656;23.374;2023-03-26T01:30:03;94085.19;;;11.86;72.39
10462;BME280;5278;42.656;23.374;2023-03-26T01:32:47;94134.50;;;12.01;72.95
10462;BME280;5278;42.656;23.374;2023-03-26T01:35:25;94144.09;;;12.00;73.62
10462;BME280;5278;42.656;23.374;2023-03-26T01:38:01;94138.47;;;11.97;73.72
10462;BME280;5278;42.656;23.374;2023-03-26T01:40:40;94134.03;;;11.91;74.42
10462;BME280;5278;42.656;23.374;2023-03-26T01:43:19;94138.41;;;11.77;75.09
10462;BME280;5278;42.656;23.374;2023-03-26T01:45:48;94125.47;;;11.56;76.22
10462;BME280;5278;42.656;23.374;2023-03-26T01:48:16;94149.09;;;11.61;76.84
10462;BME280;5278;42.656;23.374;2023-03-26T01:50:43;94143.06;;;11.54;77.65
10462;BME280;5278;42.656;23.374;2023-03-26T01:53:13;94151.25;;;11.51;77.87
10462;BME280;5278;42.656;23.374;2023-03-26T01:55:48;94150.47;;;11.57;78.02
10462;BME280;5278;42.656;23.374;2023-03-26T01:58:25;94153.28;;;11.55;78.27
10462;BME280;5278;42.656;23.374;2023-03-26T02:00:59;94153.47;;;11.54;78.71
10462;BME280;5278;42.656;23.374;2023-03-26T02:03:30;94148.03;;;11.49;79.16
10462;BME280;5278;42.656;23.374;2023-03-26T02:06:05;94142.44;;;11.52;79.28
10462;BME280;5278;42.656;23.374;2023-03-26T02:08:37;94161.28;;;11.54;79.17
10462;BME280;5278;42.656;23.374;2023-03-26T02:11:10;94155.69;;;11.57;79.27
10462;BME280;5278;42.656;23.374;2023-03-26T02:13:38;94146.88;;;11.58;79.09
10462;BME280;5278;42.656;23.374;2023-03-26T02:16:08;94099.91;;;11.25;79.51
10462;BME280;5278;42.656;23.374;2023-03-26T02:18:38;94154.75;;;11.64;79.11
10462;BME280;5278;42.656;23.374;2023-03-26T02:21:08;94158.50;;;11.62;79.12
10462;BME280;5278;42.656;23.374;2023-03-26T02:23:36;94166.53;;;11.60;79.47
10462;BME280;5278;42.656;23.374;2023-03-26T02:26:08;94166.31;;;11.55;79.94
10462;BME280;5278;42.656;23.374;2023-03-26T02:28:35;94151.81;;;11.46;80.23
10462;BME280;5278;42.656;23.374;2023-03-26T02:31:03;94146.19;;;11.43;80.74
10462;BME280;5278;42.656;23.374;2023-03-26T02:33:34;94146.81;;;11.45;80.49
10462;BME280;5278;42.656;23.374;2023-03-26T02:36:01;94144.59;;;11.42;80.51
10462;BME280;5278;42.656;23.374;2023-03-26T02:38:29;94154.19;;;11.41;80.63
10462;BME280;5278;42.656;23.374;2023-03-26T02:40:59;94151.81;;;11.40;80.91
10462;BME280;5278;42.656;23.374;2023-03-26T02:43:28;94163.00;;;11.40;80.88
10462;BME280;5278;42.656;23.374;2023-03-26T02:45:55;94152.56;;;11.34;80.59
10462;BME280;5278;42.656;23.374;2023-03-26T02:48:23;94165.31;;;11.29;81.21
10462;BME280;5278;42.656;23.374;2023-03-26T02:50:51;94159.72;;;11.32;81.07
10462;BME280;5278;42.656;23.374;2023-03-26T02:53:18;94160.34;;;11.34;81.24
10462;BME280;5278;42.656;23.374;2023-03-26T02:55:46;94152.16;;;11.37;80.95
10462;BME280;5278;42.656;23.374;2023-03-26T02:58:14;94157.19;;;11.38;81.23
10462;BME280;5278;42.656;23.374;2023-03-26T03:00:44;94183.19;;;11.38;81.45
10462;BME280;5278;42.656;23.374;2023-03-26T03:03:11;94173.41;;;11.40;81.31
10462;BME280;5278;42.656;23.374;2023-03-26T03:05:38;94183.38;;;11.37;81.59
10462;BME280;5278;42.656;23.374;2023-03-26T03:08:07;94180.31;;;11.27;81.58
10462;BME280;5278;42.656;23.374;2023-03-26T03:10:34;94154.72;;;11.02;81.88
10462;BME280;5278;42.656;23.374;2023-03-26T03:13:03;94190.47;;;11.21;81.60
10462;BME280;5278;42.656;23.374;2023-03-26T03:15:32;94185.72;;;11.25;81.49
10462;BME280;5278;42.656;23.374;2023-03-26T03:18:00;94183.91;;;11.26;81.08
10462;BME280;5278;42.656;23.374;2023-03-26T03:20:27;94186.94;;;11.29;81.01
10462;BME280;5278;42.656;23.374;2023-03-26T03:22:55;94196.53;;;11.29;80.95
10462;BME280;5278;42.656;23.374;2023-03-26T03:25:22;94190.47;;;11.21;81.03
10462;BME280;5278;42.656;23.374;2023-03-26T03:27:50;94199.69;;;11.24;80.73
10462;BME280;5278;42.656;23.374;2023-03-26T03:30:18;94199.28;;;11.20;80.97
10462;BME280;5278;42.656;23.374;2023-03-26T03:32:45;94211.03;;;11.16;80.66
10462;BME280;5278;42.656;23.374;2023-03-26T03:35:14;94205.41;;;11.13;80.99
10462;BME280;5278;42.656;23.374;2023-03-26T03:37:41;94205.59;;;11.11;81.02
10462;BME280;5278;42.656;23.374;2023-03-26T03:40:09;94206.34;;;11.05;81.05
10462;BME280;5278;42.656;23.374;2023-03-26T03:42:36;94202.75;;;11.06;81.29
10462;BME280;5278;42.656;23.374;2023-03-26T03:45:04;94198.56;;;11.05;81.17
10462;BME280;5278;42.656;23.374;2023-03-26T03:47:31;94192.78;;;11.10;80.91
10462;BME280;5278;42.656;23.374;2023-03-26T03:49:58;94202.31;;;11.03;81.24
10462;BME280;5278;42.656;23.374;2023-03-26T03:52:27;94198.56;;;11.05;81.64
10462;BME280;5278;42.656;23.374;2023-03-26T03:54:55;94177.16;;;10.82;81.14
10462;BME280;5278;42.656;23.374;2023-03-26T03:57:24;94199.31;;;10.99;81.71
10462;BME280;5278;42.656;23.374;2023-03-26T03:59:53;94170.47;;;10.73;81.67
10462;BME280;5278;42.656;23.374;2023-03-26T04:02:23;94197.69;;;10.98;81.55
10462;BME280;5278;42.656;23.374;2023-03-26T04:04:55;94208.81;;;10.92;82.22
10462;BME280;5278;42.656;23.374;2023-03-26T04:07:22;94205.63;;;10.90;82.40
10462;BME280;5278;42.656;23.374;2023-03-26T04:09:51;94205.00;;;10.88;82.55
10462;BME280;5278;42.656;23.374;2023-03-26T04:12:18;94206.97;;;10.86;82.38
10462;BME280;5278;42.656;23.374;2023-03-26T04:14:45;94210.34;;;10.80;82.41
10462;BME280;5278;42.656;23.374;2023-03-26T04:17:13;94220.28;;;10.76;82.82
10462;BME280;5278;42.656;23.374;2023-03-26T04:19:39;94227.13;;;10.63;83.02
10462;BME280;5278;42.656;23.374;2023-03-26T04:22:08;94233.69;;;10.59;83.76
10462;BME280;5278;42.656;23.374;2023-03-26T04:24:36;94246.81;;;10.51;84.30
10462;BME280;5278;42.656;23.374;2023-03-26T04:27:07;94269.38;;;10.50;84.86
10462;BME280;5278;42.656;23.374;2023-03-26T04:29:39;94280.09;;;10.47;84.94
10462;BME280;5278;42.656;23.374;2023-03-26T04:32:11;94273.66;;;10.43;85.29
10462;BME280;5278;42.656;23.374;2023-03-26T04:34:38;94276.44;;;10.42;85.67
10462;BME280;5278;42.656;23.374;2023-03-26T04:37:13;94287.56;;;10.50;85.20
10462;BME280;5278;42.656;23.374;2023-03-26T04:39:43;94284.75;;;10.52;85.43
10462;BME280;5278;42.656;23.374;2023-03-26T04:42:11;94286.19;;;10.54;85.29
10462;BME280;5278;42.656;23.374;2023-03-26T04:44:38;94283.47;;;10.62;84.37
10462;BME280;5278;42.656;23.374;2023-03-26T04:47:06;94292.34;;;10.68;84.08
10462;BME280;5278;42.656;23.374;2023-03-26T04:49:33;94297.28;;;10.63;84.19
10462;BME280;5278;42.656;23.374;2023-03-26T04:52:00;94293.78;;;10.70;83.80
10462;BME280;5278;42.656;23.374;2023-03-26T04:54:27;94298.78;;;10.72;83.02
10462;BME280;5278;42.656;23.374;2023-03-26T04:56:56;94293.56;;;10.72;82.24
10462;BME280;5278;42.656;23.374;2023-03-26T04:59:28;94299.97;;;10.69;82.90
10462;BME280;5278;42.656;23.374;2023-03-26T05:02:00;94290.88;;;10.80;82.52
10462;BME280;5278;42.656;23.374;2023-03-26T05:04:27;94287.34;;;10.88;80.99
10462;BME280;5278;42.656;23.374;2023-03-26T05:06:58;94298.25;;;10.98;80.21
10462;BME280;5278;42.656;23.374;2023-03-26T05:09:27;94296.78;;;11.10;80.08
10462;BME280;5278;42.656;23.374;2023-03-26T05:11:54;94286.66;;;11.43;78.37
10462;BME280;5278;42.656;23.374;2023-03-26T05:14:21;94290.13;;;12.05;75.31
10462;BME280;5278;42.656;23.374;2023-03-26T05:16:50;94302.56;;;12.44;71.95
10462;BME280;5278;42.656;23.374;2023-03-26T05:19:18;94290.88;;;12.88;69.02
10462;BME280;5278;42.656;23.374;2023-03-26T05:21:45;94306.66;;;13.34;67.25
10462;BME280;5278;42.656;23.374;2023-03-26T05:24:14;94278.38;;;13.57;65.04
10462;BME280;5278;42.656;23.374;2023-03-26T05:26:40;94290.16;;;14.06;62.67
10462;BME280;5278;42.656;23.374;2023-03-26T05:29:07;94315.59;;;14.63;61.01
10462;BME280;5278;42.656;23.374;2023-03-26T05:31:34;94309.00;;;14.98;59.15
10462;BME280;5278;42.656;23.374;2023-03-26T05:34:04;94310.44;;;15.26;58.08
10462;BME280;5278;42.656;23.374;2023-03-26T05:36:31;94311.06;;;15.21;58.43
10462;BME280;5278;42.656;23.374;2023-03-26T05:38:58;94308.88;;;15.49;57.51
10462;BME280;5278;42.656;23.374;2023-03-26T05:41:25;94306.13;;;15.69;56.77
10462;BME280;5278;42.656;23.374;2023-03-26T05:43:52;94312.44;;;15.62;56.85
10462;BME280;5278;42.656;23.374;2023-03-26T05:46:19;94305.06;;;16.02;55.86
10462;BME280;5278;42.656;23.374;2023-03-26T05:48:47;94318.44;;;16.36;54.63
10462;BME280;5278;42.656;23.374;2023-03-26T05:51:16;94208.84;;;16.27;52.78
10462;BME280;5278;42.656;23.374;2023-03-26T05:53:43;94305.97;;;17.35;50.75
10462;BME280;5278;42.656;23.374;2023-03-26T05:56:10;94312.81;;;17.36;50.66
10462;BME280;5278;42.656;23.374;2023-03-26T05:58:37;94313.63;;;17.36;50.21
10462;BME280;5278;42.656;23.374;2023-03-26T06:01:06;94305.75;;;17.66;50.14
10462;BME280;5278;42.656;23.374;2023-03-26T06:03:35;94303.84;;;17.96;48.53
10462;BME280;5278;42.656;23.374;2023-03-26T06:06:07;94298.91;;;18.35;47.36
10462;BME280;5278;42.656;23.374;2023-03-26T06:08:36;94286.91;;;18.62;45.69
10462;BME280;5278;42.656;23.374;2023-03-26T06:11:04;94300.94;;;18.79;44.55
10462;BME280;5278;42.656;23.374;2023-03-26T06:13:33;94290.00;;;18.99;43.82
10462;BME280;5278;42.656;23.374;2023-03-26T06:15:59;94281.22;;;19.22;42.37
10462;BME280;5278;42.656;23.374;2023-03-26T06:18:26;94288.63;;;19.53;41.48
10462;BME280;5278;42.656;23.374;2023-03-26T06:20:53;94293.69;;;19.55;41.32
10462;BME280;5278;42.656;23.374;2023-03-26T06:23:20;94291.81;;;19.10;41.83
10462;BME280;5278;42.656;23.374;2023-03-26T06:25:49;94295.84;;;18.61;42.63
10462;BME280;5278;42.656;23.374;2023-03-26T06:28:16;94290.47;;;18.33;43.23
10462;BME280;5278;42.656;23.374;2023-03-26T06:30:43;94290.13;;;18.29;43.80
10462;BME280;5278;42.656;23.374;2023-03-26T06:33:11;94298.16;;;18.23;43.89
10462;BME280;5278;42.656;23.374;2023-03-26T06:35:38;94291.72;;;18.65;43.28
10462;BME280;5278;42.656;23.374;2023-03-26T06:38:05;94291.38;;;19.02;42.37
10462;BME280;5278;42.656;23.374;2023-03-26T06:40:33;94284.03;;;19.60;41.00
10462;BME280;5278;42.656;23.374;2023-03-26T06:43:01;94284.25;;;20.09;39.57
10462;BME280;5278;42.656;23.374;2023-03-26T06:45:29;94280.59;;;20.27;38.48
10462;BME280;5278;42.656;23.374;2023-03-26T06:47:56;94290.50;;;20.03;39.06
10462;BME280;5278;42.656;23.374;2023-03-26T06:50:22;94295.34;;;20.28;38.48
10462;BME280;5278;42.656;23.374;2023-03-26T06:52:52;94295.13;;;20.68;36.42
10462;BME280;5278;42.656;23.374;2023-03-26T06:55:19;94297.00;;;20.67;36.55
10462;BME280;5278;42.656;23.374;2023-03-26T06:57:47;94312.44;;;20.58;36.89
10462;BME280;5278;42.656;23.374;2023-03-26T07:00:18;94302.16;;;20.79;36.35
10462;BME280;5278;42.656;23.374;2023-03-26T07:02:46;94318.91;;;20.68;36.98
10462;BME280;5278;42.656;23.374;2023-03-26T07:05:13;94320.13;;;21.20;36.51
10462;BME280;5278;42.656;23.374;2023-03-26T07:07:40;94320.50;;;21.87;34.86
10462;BME280;5278;42.656;23.374;2023-03-26T07:10:10;94324.66;;;22.79;32.91
10462;BME280;5278;42.656;23.374;2023-03-26T07:12:37;94323.72;;;22.58;32.95
10462;BME280;5278;42.656;23.374;2023-03-26T07:15:05;94221.13;;;22.39;32.37
10462;BME280;5278;42.656;23.374;2023-03-26T07:17:33;94301.66;;;23.87;30.80
10462;BME280;5278;42.656;23.374;2023-03-26T07:20:00;94305.91;;;24.14;30.26
10462;BME280;5278;42.656;23.374;2023-03-26T07:22:28;94296.91;;;24.45;30.13
10462;BME280;5278;42.656;23.374;2023-03-26T07:24:56;94296.75;;;25.01;29.19
10462;BME280;5278;42.656;23.374;2023-03-26T07:27:36;94300.78;;;25.52;28.56
10462;BME280;5278;42.656;23.374;2023-03-26T07:30:11;94306.72;;;26.17;27.20
10462;BME280;5278;42.656;23.374;2023-03-26T07:32:48;94300.22;;;26.86;26.13
10462;BME280;5278;42.656;23.374;2023-03-26T07:35:20;94291.88;;;27.40;25.58
10462;BME280;5278;42.656;23.374;2023-03-26T07:38:01;94285.47;;;27.97;24.43
10462;BME280;5278;42.656;23.374;2023-03-26T07:40:43;94289.94;;;28.20;23.84
10462;BME280;5278;42.656;23.374;2023-03-26T07:43:22;94286.75;;;28.64;23.49
10462;BME280;5278;42.656;23.374;2023-03-26T07:45:53;94282.94;;;29.12;23.32
10462;BME280;5278;42.656;23.374;2023-03-26T07:48:25;94289.09;;;29.39;22.88
10462;BME280;5278;42.656;23.374;2023-03-26T07:50:53;94284.84;;;29.74;22.89
10462;BME280;5278;42.656;23.374;2023-03-26T07:53:21;94247.84;;;29.27;22.64
10462;BME280;5278;42.656;23.374;2023-03-26T07:55:52;94295.03;;;29.50;22.59
10462;BME280;5278;42.656;23.374;2023-03-26T07:58:36;94289.91;;;30.12;21.96
10462;BME280;5278;42.656;23.374;2023-03-26T08:01:09;94282.84;;;30.38;21.33
10462;BME280;5278;42.656;23.374;2023-03-26T08:06:49;94281.25;;;31.55;20.45
10462;BME280;5278;42.656;23.374;2023-03-26T08:09:25;94277.38;;;32.13;19.58
10462;BME280;5278;42.656;23.374;2023-03-26T08:11:57;94273.91;;;32.21;19.12
10462;BME280;5278;42.656;23.374;2023-03-26T08:14:35;94265.19;;;32.33;19.01
10462;BME280;5278;42.656;23.374;2023-03-26T08:17:09;94268.69;;;30.77;19.63
10462;BME280;5278;42.656;23.374;2023-03-26T08:19:48;94276.53;;;30.43;20.58
10462;BME280;5278;42.656;23.374;2023-03-26T08:22:21;94286.38;;;30.47;21.20
10462;BME280;5278;42.656;23.374;2023-03-26T08:25:13;94280.53;;;30.23;20.60
10462;BME280;5278;42.656;23.374;2023-03-26T08:27:54;94280.38;;;30.50;20.32
10462;BME280;5278;42.656;23.374;2023-03-26T08:30:26;94283.22;;;31.07;19.99
10462;BME280;5278;42.656;23.374;2023-03-26T08:32:55;94280.06;;;32.22;18.82
10462;BME280;5278;42.656;23.374;2023-03-26T08:35:24;94221.34;;;31.46;18.13
10462;BME280;5278;42.656;23.374;2023-03-26T08:37:53;94283.53;;;31.79;18.12
10462;BME280;5278;42.656;23.374;2023-03-26T08:40:41;94279.84;;;32.53;17.11
10462;BME280;5278;42.656;23.374;2023-03-26T08:46:38;94270.03;;;33.03;17.15
10462;BME280;5278;42.656;23.374;2023-03-26T08:49:31;94268.75;;;34.30;16.44
10462;BME280;5278;42.656;23.374;2023-03-26T08:52:33;94258.69;;;34.19;15.89
10462;BME280;5278;42.656;23.374;2023-03-26T08:55:15;94267.19;;;33.58;16.22
10462;BME280;5278;42.656;23.374;2023-03-26T09:01:03;94269.75;;;33.84;16.92
10462;BME280;5278;42.656;23.374;2023-03-26T09:03:42;94258.16;;;34.04;16.77
10462;BME280;5278;42.656;23.374;2023-03-26T09:06:29;94273.63;;;33.45;17.19
10462;BME280;5278;42.656;23.374;2023-03-26T09:12:29;94257.69;;;31.35;18.49
10462;BME280;5278;42.656;23.374;2023-03-26T09:15:33;94277.53;;;31.91;18.11
10462;BME280;5278;42.656;23.374;2023-03-26T09:18:37;94279.69;;;30.67;17.85
10462;BME280;5278;42.656;23.374;2023-03-26T09:21:36;94274.88;;;31.26;20.73
10462;BME280;5278;42.656;23.374;2023-03-26T09:27:52;94256.00;;;35.21;16.93
10462;BME280;5278;42.656;23.374;2023-03-26T09:30:36;94256.84;;;34.76;17.06
10462;BME280;5278;42.656;23.374;2023-03-26T09:36:51;94256.41;;;35.47;14.78
10462;BME280;5278;42.656;23.374;2023-03-26T09:39:31;94246.41;;;36.55;15.24
10462;BME280;5278;42.656;23.374;2023-03-26T09:42:08;94249.50;;;37.32;13.95
10462;BME280;5278;42.656;23.374;2023-03-26T09:45:11;94252.56;;;36.99;13.75
10462;BME280;5278;42.656;23.374;2023-03-26T09:48:03;94234.31;;;37.63;13.52
10462;BME280;5278;42.656;23.374;2023-03-26T09:50:39;94237.09;;;38.20;13.47
10462;BME280;5278;42.656;23.374;2023-03-26T09:53:38;94241.03;;;38.04;13.57
10462;BME280;5278;42.656;23.374;2023-03-26T09:56:15;94235.63;;;37.69;13.89
10462;BME280;5278;42.656;23.374;2023-03-26T10:01:56;94221.69;;;37.35;14.14
10462;BME280;5278;42.656;23.374;2023-03-26T10:04:58;94224.44;;;35.89;13.94
10462;BME280;5278;42.656;23.374;2023-03-26T10:10:27;94206.84;;;36.66;13.91
10462;BME280;5278;42.656;23.374;2023-03-26T10:13:03;94209.28;;;37.19;13.59
10462;BME280;5278;42.656;23.374;2023-03-26T10:15:55;94208.25;;;36.33;13.58
10462;BME280;5278;42.656;23.374;2023-03-26T10:18:36;94203.72;;;36.09;13.76
10462;BME280;5278;42.656;23.374;2023-03-26T10:21:10;94192.13;;;36.36;14.07
10462;BME280;5278;42.656;23.374;2023-03-26T10:23:51;94187.59;;;37.03;13.32
10462;BME280;5278;42.656;23.374;2023-03-26T10:26:44;94179.97;;;36.30;13.58
10462;BME280;5278;42.656;23.374;2023-03-26T10:29:35;94182.50;;;35.95;14.32
10462;BME280;5278;42.656;23.374;2023-03-26T10:32:18;94172.41;;;35.16;13.45
10462;BME280;5278;42.656;23.374;2023-03-26T10:34:59;94169.38;;;33.79;16.04
10462;BME280;5278;42.656;23.374;2023-03-26T10:37:38;94164.75;;;33.79;15.05
10462;BME280;5278;42.656;23.374;2023-03-26T10:40:19;94168.34;;;34.61;14.67
10462;BME280;5278;42.656;23.374;2023-03-26T10:43:16;94157.63;;;35.37;13.99
10462;BME280;5278;42.656;23.374;2023-03-26T10:46:05;94163.22;;;36.40;13.43
10462;BME280;5278;42.656;23.374;2023-03-26T10:48:45;94149.72;;;35.85;12.52
10462;BME280;5278;42.656;23.374;2023-03-26T10:51:26;94150.22;;;35.74;14.08
10462;BME280;5278;42.656;23.374;2023-03-26T10:54:07;94155.22;;;34.84;13.80
10462;BME280;5278;42.656;23.374;2023-03-26T10:56:40;94151.91;;;35.03;14.34
10462;BME280;5278;42.656;23.374;2023-03-26T10:59:12;94132.22;;;35.66;13.87
10462;BME280;5278;42.656;23.374;2023-03-26T11:01:43;94136.22;;;36.00;13.75
10462;BME280;5278;42.656;23.374;2023-03-26T11:04:25;94132.50;;;35.37;13.67
10462;BME280;5278;42.656;23.374;2023-03-26T11:07:02;94122.81;;;33.49;14.90
10462;BME280;5278;42.656;23.374;2023-03-26T11:09:40;94144.22;;;34.20;14.34
10462;BME280;5278;42.656;23.374;2023-03-26T11:12:13;94136.75;;;34.74;14.01
10462;BME280;5278;42.656;23.374;2023-03-26T11:14:48;94127.72;;;35.18;13.56
10462;BME280;5278;42.656;23.374;2023-03-26T11:17:23;94129.00;;;36.04;13.69
10462;BME280;5278;42.656;23.374;2023-03-26T11:20:02;94122.88;;;35.92;13.23
10462;BME280;5278;42.656;23.374;2023-03-26T11:22:40;94130.63;;;35.93;13.09
10462;BME280;5278;42.656;23.374;2023-03-26T11:25:28;94122.03;;;35.75;13.98
10462;BME280;5278;42.656;23.374;2023-03-26T11:28:09;94127.03;;;35.21;12.88
10462;BME280;5278;42.656;23.374;2023-03-26T11:30:46;94124.03;;;34.86;12.75
10462;BME280;5278;42.656;23.374;2023-03-26T11:33:17;94116.81;;;34.90;12.59
10462;BME280;5278;42.656;23.374;2023-03-26T11:35:47;94114.34;;;33.38;13.42
10462;BME280;5278;42.656;23.374;2023-03-26T11:38:22;94112.94;;;32.61;14.19
10462;BME280;5278;42.656;23.374;2023-03-26T11:40:53;94087.91;;;32.61;13.70
10462;BME280;5278;42.656;23.374;2023-03-26T11:43:23;94101.25;;;33.07;13.35
10462;BME280;5278;42.656;23.374;2023-03-26T11:45:51;94096.44;;;33.13;13.69
10462;BME280;5278;42.656;23.374;2023-03-26T11:48:22;94100.28;;;32.53;14.09
10462;BME280;5278;42.656;23.374;2023-03-26T11:50:55;94089.03;;;32.60;13.90
10462;BME280;5278;42.656;23.374;2023-03-26T11:53:28;94052.56;;;32.71;13.34
10462;BME280;5278;42.656;23.374;2023-03-26T11:56:02;94054.66;;;31.98;14.06
10462;BME280;5278;42.656;23.374;2023-03-26T11:58:32;94062.47;;;31.74;14.11
10462;BME280;5278;42.656;23.374;2023-03-26T12:01:03;94061.38;;;30.89;14.65
10462;BME280;5278;42.656;23.374;2023-03-26T12:03:31;94062.13;;;30.46;14.95
10462;BME280;5278;42.656;23.374;2023-03-26T12:05:58;94057.91;;;30.14;15.06
10462;BME280;5278;42.656;23.374;2023-03-26T12:08:32;94042.03;;;29.87;15.26
10462;BME280;5278;42.656;23.374;2023-03-26T12:11:05;94051.53;;;29.62;16.06
10462;BME280;5278;42.656;23.374;2023-03-26T12:13:38;94057.31;;;29.86;15.56
10462;BME280;5278;42.656;23.374;2023-03-26T12:16:11;94039.75;;;30.51;15.20
10462;BME280;5278;42.656;23.374;2023-03-26T12:18:40;94032.66;;;30.63;14.71
10462;BME280;5278;42.656;23.374;2023-03-26T12:21:10;94033.72;;;30.54;14.95
10462;BME280;5278;42.656;23.374;2023-03-26T12:23:43;94029.28;;;29.62;15.13
10462;BME280;5278;42.656;23.374;2023-03-26T12:26:14;94027.91;;;28.75;15.71
10462;BME280;5278;42.656;23.374;2023-03-26T12:28:46;94015.34;;;28.12;16.10
10462;BME280;5278;42.656;23.374;2023-03-26T12:31:14;94017.34;;;27.47;16.94
10462;BME280;5278;42.656;23.374;2023-03-26T12:33:44;94012.44;;;26.33;18.03
10462;BME280;5278;42.656;23.374;2023-03-26T12:36:22;94002.03;;;25.65;18.63
10462;BME280;5278;42.656;23.374;2023-03-26T12:38:55;93982.31;;;25.19;19.19
10462;BME280;5278;42.656;23.374;2023-03-26T12:41:33;94006.81;;;25.11;18.93
10462;BME280;5278;42.656;23.374;2023-03-26T12:44:20;93994.72;;;25.00;19.40
10462;BME280;5278;42.656;23.374;2023-03-26T12:46:48;93992.31;;;24.64;18.88
10462;BME280;5278;42.656;23.374;2023-03-26T12:49:18;93997.91;;;24.19;18.70
10462;BME280;5278;42.656;23.374;2023-03-26T12:51:49;93993.78;;;23.87;18.65
10462;BME280;5278;42.656;23.374;2023-03-26T12:54:36;93993.13;;;23.46;18.71
10462;BME280;5278;42.656;23.374;2023-03-26T12:57:18;93988.97;;;22.74;18.80
10462;BME280;5278;42.656;23.374;2023-03-26T12:59:59;93987.84;;;22.25;19.03
10462;BME280;5278;42.656;23.374;2023-03-26T13:05:41;93982.41;;;21.84;19.38
10462;BME280;5278;42.656;23.374;2023-03-26T13:11:20;93978.78;;;21.38;20.36
10462;BME280;5278;42.656;23.374;2023-03-26T13:13:59;93982.41;;;21.27;20.37
10462;BME280;5278;42.656;23.374;2023-03-26T13:16:37;93978.13;;;21.16;20.70
10462;BME280;5278;42.656;23.374;2023-03-26T13:19:08;93971.53;;;21.19;20.49
10462;BME280;5278;42.656;23.374;2023-03-26T13:21:47;93963.56;;;21.14;20.03
10462;BME280;5278;42.656;23.374;2023-03-26T13:24:26;93972.28;;;20.77;19.88
10462;BME280;5278;42.656;23.374;2023-03-26T13:27:07;93973.38;;;20.81;20.39
10462;BME280;5278;42.656;23.374;2023-03-26T13:29:43;93966.53;;;20.85;20.37
10462;BME280;5278;42.656;23.374;2023-03-26T13:32:27;93974.31;;;20.65;20.10
10462;BME280;5278;42.656;23.374;2023-03-26T13:35:04;93979.22;;;20.88;27.73
10462;BME280;5278;42.656;23.374;2023-03-26T13:37:44;93964.94;;;21.21;24.55
10462;BME280;5278;42.656;23.374;2023-03-26T13:40:21;93975.69;;;21.57;32.39
10462;BME280;5278;42.656;23.374;2023-03-26T13:43:03;93965.69;;;21.74;20.62
10462;BME280;5278;42.656;23.374;2023-03-26T13:45:46;93967.81;;;21.82;24.99
10462;BME280;5278;42.656;23.374;2023-03-26T13:48:21;93964.44;;;21.86;23.97
10462;BME280;5278;42.656;23.374;2023-03-26T13:50:55;93947.16;;;21.69;24.05
10462;BME280;5278;42.656;23.374;2023-03-26T13:53:25;93955.38;;;21.77;29.45
10462;BME280;5278;42.656;23.374;2023-03-26T13:55:57;93955.22;;;21.94;25.64
10462;BME280;5278;42.656;23.374;2023-03-26T13:58:33;93946.78;;;22.17;28.04
10462;BME280;5278;42.656;23.374;2023-03-26T14:01:05;93967.16;;;22.22;19.75